Time;durP1;ratioP1;P1;durP2;ratioP2;P2;SDS_P1;SDS_P2;PMS_P1;PMS_P2;Temp;Humidity;BMP_temperature;BMP_pressure;BME280_temperature;BME280_humidity;BME280_pressure;Samples;Min_cycle;Max_cycle;Signal;HPM_P1;HPM_P2
2023/02/12 00:01:37;;;;;;;10.43;4.60;;;;;;;0.39;36.25;94824.88;5102753;28;20028;-85
2023/02/12 00:04:03;;;;;;;12.93;5.20;;;;;;;0.37;36.63;94840.03;5102733;28;20167;-85
2023/02/12 00:06:29;;;;;;;11.38;4.60;;;;;;;0.37;35.80;94811.19;5102737;28;20091;-85
2023/02/12 00:08:56;;;;;;;11.43;4.82;;;;;;;0.39;35.97;94825.66;5102788;28;20226;-84
2023/02/12 00:11:24;;;;;;;8.73;4.63;;;;;;;0.35;36.44;94839.47;5106184;28;20028;-85
2023/02/12 00:13:51;;;;;;;11.95;5.28;;;;;;;0.38;36.84;94831.13;5106420;28;20028;-84
2023/02/12 00:16:20;;;;;;;11.32;5.30;;;;;;;0.40;36.71;94829.09;5106406;28;20301;-84
2023/02/12 00:18:46;;;;;;;11.27;4.53;;;;;;;0.40;36.29;94837.75;5106239;28;20133;-84
2023/02/12 00:21:12;;;;;;;14.52;4.57;;;;;;;0.42;36.07;94828.88;5106587;28;20024;-85
2023/02/12 00:23:39;;;;;;;9.63;4.18;;;;;;;0.44;35.97;94824.97;5106323;28;20218;-85
2023/02/12 00:26:10;;;;;;;12.40;4.93;;;;;;;0.46;35.85;94820.31;5106213;28;20028;-85
2023/02/12 00:28:36;;;;;;;9.85;4.47;;;;;;;0.48;36.00;94838.44;5106230;28;20036;-84
2023/02/12 00:31:06;;;;;;;12.45;4.72;;;;;;;0.48;36.27;94826.13;5106256;28;20379;-85
2023/02/12 00:33:32;;;;;;;10.93;5.25;;;;;;;0.46;36.81;94824.75;5105813;28;20031;-84
2023/02/12 00:35:57;;;;;;;11.25;4.93;;;;;;;0.39;36.42;94835.38;5106089;28;20214;-85
2023/02/12 00:38:23;;;;;;;8.05;4.45;;;;;;;0.46;36.35;94811.66;5106070;28;20082;-85
2023/02/12 00:40:48;;;;;;;12.23;5.15;;;;;;;0.44;36.99;94806.63;5105993;28;20015;-85
2023/02/12 00:43:14;;;;;;;5.88;3.33;;;;;;;0.36;36.73;94805.13;5105970;28;20023;-85
2023/02/12 00:45:39;;;;;;;8.82;4.47;;;;;;;0.44;36.38;94790.88;5105700;28;20214;-85
2023/02/12 00:48:05;;;;;;;16.55;5.20;;;;;;;0.47;36.49;94793.06;5105743;28;20027;-85
2023/02/12 00:50:30;;;;;;;13.23;4.35;;;;;;;0.47;35.85;94787.81;5104685;28;20016;-85
2023/02/12 00:52:56;;;;;;;8.70;3.53;;;;;;;0.50;36.47;94781.31;5105674;28;20027;-85
2023/02/12 00:55:21;;;;;;;11.82;4.78;;;;;;;0.45;36.68;94787.25;5105776;28;20023;-84
2023/02/12 00:57:46;;;;;;;13.52;4.57;;;;;;;0.47;36.73;94773.88;5105391;28;20062;-84
2023/02/12 01:00:13;;;;;;;9.88;4.25;;;;;;;0.46;36.64;94773.09;5105536;28;20279;-84
2023/02/12 01:02:38;;;;;;;11.80;3.63;;;;;;;0.50;36.68;94778.69;5105473;28;20230;-84
2023/02/12 01:05:04;;;;;;;10.98;4.35;;;;;;;0.49;36.44;94777.91;5105594;28;20020;-83
2023/02/12 01:07:29;;;;;;;8.65;4.00;;;;;;;0.49;36.37;94767.41;5105572;28;20184;-84
2023/02/12 01:09:55;;;;;;;7.68;3.63;;;;;;;0.49;36.86;94766.59;5105464;28;20020;-83
2023/02/12 01:12:20;;;;;;;11.25;4.25;;;;;;;0.51;36.23;94754.88;5105128;28;20091;-84
2023/02/12 01:14:46;;;;;;;9.38;3.70;;;;;;;0.54;36.37;94753.59;5104135;28;20020;-84
2023/02/12 01:17:11;;;;;;;9.98;5.05;;;;;;;0.61;36.46;94756.91;5105304;28;20038;-83
2023/02/12 01:19:37;;;;;;;12.90;5.03;;;;;;;0.50;36.54;94778.69;5104112;28;20055;-84
2023/02/12 01:22:02;;;;;;;12.60;5.13;;;;;;;0.50;37.46;94781.31;5104358;28;20023;-84
2023/02/12 01:24:28;;;;;;;13.88;5.38;;;;;;;0.40;37.38;94776.63;5105089;28;20024;-84
2023/02/12 01:26:53;;;;;;;11.93;5.15;;;;;;;0.45;37.37;94792.50;5104981;28;20213;-83
2023/02/12 01:29:19;;;;;;;10.27;4.63;;;;;;;0.44;37.74;94806.63;5104839;28;20039;-84
2023/02/12 01:31:44;;;;;;;10.85;5.18;;;;;;;0.35;37.79;94810.63;5105161;28;20054;-85
2023/02/12 01:34:11;;;;;;;13.07;5.32;;;;;;;0.35;38.00;94802.75;5105139;28;20047;-84
2023/02/12 01:36:36;;;;;;;8.82;4.53;;;;;;;0.33;38.00;94783.81;5104977;28;20024;-84
2023/02/12 01:39:03;;;;;;;10.23;4.30;;;;;;;0.36;37.98;94786.75;5104968;28;20326;-84
2023/02/12 01:41:32;;;;;;;8.73;4.75;;;;;;;0.37;38.21;94779.72;5104791;28;20026;-84
2023/02/12 01:44:08;;;;;;;14.18;6.20;;;;;;;0.38;38.54;94776.06;5104548;28;20314;-84
2023/02/12 01:46:34;;;;;;;12.02;5.40;;;;;;;0.35;38.25;94773.91;5104558;28;20052;-84
2023/02/12 01:49:00;;;;;;;12.85;5.28;;;;;;;0.24;38.87;94774.66;5104639;28;20084;-84
2023/02/12 01:51:27;;;;;;;12.48;5.10;;;;;;;0.22;39.21;94761.78;5104643;28;20091;-84
2023/02/12 01:53:55;;;;;;;9.10;4.57;;;;;;;0.25;38.99;94786.78;5104551;28;20026;-85
2023/02/12 01:56:22;;;;;;;10.20;5.03;;;;;;;0.19;39.65;94768.28;5104493;28;20195;-85
2023/02/12 01:58:51;;;;;;;11.93;5.65;;;;;;;0.20;39.55;94753.34;5103346;28;20039;-85
2023/02/12 02:01:23;;;;;;;10.68;5.20;;;;;;;0.26;39.97;94756.88;5104442;28;20020;-85
2023/02/12 02:03:51;;;;;;;;;;;;;;;0.21;39.96;94783.78;5104903;28;20210;-84
2023/02/12 02:06:22;;;;;;;10.73;4.55;;;;;;;0.15;40.12;94759.25;5104171;28;19926;-84
2023/02/12 02:08:48;;;;;;;10.02;4.70;;;;;;;0.18;40.29;94764.06;5104176;28;20314;-84
2023/02/12 02:16:52;;;;;;;10.18;4.70;;;;;;;0.21;41.12;94765.44;5104215;28;20026;-84
2023/02/12 02:19:46;;;;;;;7.75;3.53;;;;;;;0.23;41.16;94767.84;5103837;28;20016;-85
2023/02/12 02:22:19;;;;;;;10.68;3.55;;;;;;;0.23;41.48;94758.16;5104177;28;20016;-85
2023/02/12 02:24:54;;;;;;;11.63;4.60;;;;;;;0.25;41.98;94766.59;5104410;28;20092;-85
2023/02/12 02:27:51;;;;;;;10.38;5.20;;;;;;;0.28;41.52;94763.50;5103871;28;20047;-85
2023/02/12 02:30:44;;;;;;;10.07;4.65;;;;;;;0.35;42.22;94761.59;5103773;28;20016;-85
2023/02/12 02:33:31;;;;;;;19.20;6.30;;;;;;;0.37;41.80;94753.50;5103805;28;20035;-85
2023/02/12 02:36:03;;;;;;;15.68;6.10;;;;;;;0.18;42.61;94761.44;5102652;28;20032;-84
2023/02/12 02:39:01;;;;;;;14.27;6.00;;;;;;;0.13;42.83;94758.69;5103685;28;20314;-85
2023/02/12 02:41:41;;;;;;;15.10;5.20;;;;;;;0.21;43.50;94741.06;5103187;28;20027;-85
2023/02/12 02:44:13;;;;;;;16.35;6.25;;;;;;;0.14;43.67;94757.69;5103555;28;20214;-85
2023/02/12 02:46:50;;;;;;;12.70;6.35;;;;;;;0.14;43.95;94776.03;5103539;28;20051;-85
2023/02/12 02:49:21;;;;;;;14.82;6.93;;;;;;;0.12;44.31;94757.13;5103555;28;20027;-84
2023/02/12 02:51:52;;;;;;;14.27;6.00;;;;;;;0.11;44.38;94765.19;5103591;28;20200;-84
2023/02/12 02:54:24;;;;;;;14.73;7.00;;;;;;;0.17;44.39;94762.47;5103467;28;20026;-85
2023/02/12 02:56:57;;;;;;;14.45;6.45;;;;;;;0.13;44.39;94766.56;5103282;28;20034;-84
2023/02/12 02:59:30;;;;;;;17.77;7.57;;;;;;;0.17;44.46;94751.19;5103568;28;20023;-84
2023/02/12 03:02:02;;;;;;;20.17;7.03;;;;;;;0.17;44.99;94766.91;5103427;28;20020;-84
2023/02/12 03:04:40;;;;;;;19.23;7.18;;;;;;;0.13;44.59;94760.53;5103325;28;20245;-85
2023/02/12 03:07:11;;;;;;;14.55;6.82;;;;;;;0.16;44.73;94763.50;5103169;28;20036;-84
2023/02/12 03:09:42;;;;;;;13.68;6.78;;;;;;;0.20;44.51;94763.81;5103377;28;20016;-84
2023/02/12 03:12:16;;;;;;;14.43;6.43;;;;;;;0.19;44.99;94764.88;5103199;28;20024;-84
2023/02/12 03:14:50;;;;;;;15.18;6.65;;;;;;;0.28;44.83;94767.94;5103300;28;20257;-85
2023/02/12 03:17:23;;;;;;;17.08;6.43;;;;;;;0.29;44.84;94757.25;5103106;28;20087;-84
2023/02/12 03:20:01;;;;;;;14.55;7.13;;;;;;;0.32;45.26;94758.59;5102003;28;20020;-85
2023/02/12 03:22:37;;;;;;;14.02;5.65;;;;;;;0.32;44.76;94745.50;5103255;28;20215;-84
2023/02/12 03:25:13;;;;;;;15.93;6.72;;;;;;;0.42;45.54;94752.81;5101928;28;20024;-84
2023/02/12 03:28:08;;;;;;;10.98;5.82;;;;;;;0.43;45.26;94755.22;5103101;28;20020;-84
2023/02/12 03:30:58;;;;;;;15.05;6.82;;;;;;;0.47;45.08;94756.34;5093188;28;20035;-84
2023/02/12 03:33:54;;;;;;;17.63;6.05;;;;;;;0.49;45.29;94750.84;5101782;28;20036;-84
2023/02/12 03:36:41;;;;;;;20.15;7.45;;;;;;;0.49;45.31;94749.06;5101814;28;20032;-84
2023/02/12 03:39:42;;;;;;;20.80;7.72;;;;;;;0.53;45.21;94747.56;5103028;28;20051;-85
2023/02/12 03:42:16;;;;;;;15.70;6.85;;;;;;;0.56;45.31;94744.47;5103012;28;20039;-85
2023/02/12 03:44:51;;;;;;;15.82;6.63;;;;;;;0.57;44.64;94755.75;5102833;28;20036;-84
2023/02/12 03:47:58;;;;;;;14.48;6.18;;;;;;;0.60;44.06;94763.97;5105696;28;20063;-84
2023/02/12 03:50:32;;;;;;;17.73;7.20;;;;;;;0.63;44.58;94769.78;5105694;28;20122;-83
2023/02/12 03:52:58;;;;;;;16.45;6.03;;;;;;;0.60;44.43;94758.72;5105540;28;20035;-83
2023/02/12 03:55:23;;;;;;;14.63;7.20;;;;;;;0.64;44.21;94766.16;5106854;28;20032;-84
2023/02/12 03:57:59;;;;;;;18.00;7.07;;;;;;;0.63;44.47;94762.72;5106949;28;20028;-83
2023/02/12 04:00:25;;;;;;;12.15;5.57;;;;;;;0.58;44.24;94766.03;5106797;28;20149;-84
2023/02/12 04:02:53;;;;;;;16.25;7.60;;;;;;;0.63;45.24;94770.59;5106624;28;20016;-83
2023/02/12 04:05:26;;;;;;;15.77;6.32;;;;;;;0.54;45.33;94757.03;5106463;28;20016;-83
2023/02/12 04:07:54;;;;;;;18.20;8.27;;;;;;;0.52;44.94;94750.41;5106574;28;20095;-83
2023/02/12 04:10:28;;;;;;;17.10;7.95;;;;;;;0.58;45.36;94744.25;5106680;28;20222;-83
2023/02/12 04:13:09;;;;;;;20.50;8.07;;;;;;;0.57;45.22;94748.72;5106595;28;20245;-83
2023/02/12 04:16:05;;;;;;;22.20;7.13;;;;;;;0.54;45.30;94753.59;5106585;28;20043;-82
2023/02/12 04:18:42;;;;;;;16.02;7.72;;;;;;;0.50;45.84;94760.34;5105842;28;20212;-83
2023/02/12 04:21:19;;;;;;;20.55;9.50;;;;;;;0.49;46.13;94761.34;5106534;28;20012;-83
2023/02/12 04:24:19;;;;;;;20.05;8.23;;;;;;;0.38;46.63;94760.31;5106536;28;20031;-83
2023/02/12 04:26:56;;;;;;;17.08;8.63;;;;;;;0.31;46.63;94770.94;5090203;28;20043;-83
2023/02/12 04:29:36;;;;;;;23.48;10.48;;;;;;;0.29;47.16;94761.69;5106270;28;20024;-83
2023/02/12 04:32:19;;;;;;;20.63;10.20;;;;;;;0.26;47.16;94757.69;5105948;28;20031;-83
2023/02/12 04:34:57;;;;;;;25.60;9.88;;;;;;;0.25;47.57;94771.03;5106457;28;20027;-83
2023/02/12 04:37:34;;;;;;;22.05;9.60;;;;;;;0.18;47.73;94771.94;5106055;28;20035;-83
2023/02/12 04:40:03;;;;;;;18.83;9.07;;;;;;;0.18;47.62;94777.19;5105726;28;20276;-83
2023/02/12 04:42:28;;;;;;;19.48;9.18;;;;;;;0.12;48.46;94767.59;5106011;28;20352;-83
2023/02/12 04:44:54;;;;;;;21.45;9.80;;;;;;;0.14;48.30;94773.41;5105926;28;20027;-83
2023/02/12 04:47:19;;;;;;;21.95;10.05;;;;;;;0.14;47.77;94776.03;5105754;28;20043;-83
2023/02/12 04:49:44;;;;;;;23.95;10.07;;;;;;;0.12;48.40;94778.09;5106010;28;20058;-83
2023/02/12 04:52:10;;;;;;;20.98;9.73;;;;;;;0.11;48.28;94784.34;5105636;28;20315;-83
2023/02/12 04:54:36;;;;;;;23.85;9.15;;;;;;;0.00;47.30;94787.75;5105656;28;20032;-83
2023/02/12 04:57:01;;;;;;;19.05;8.88;;;;;;;-0.03;47.02;94801.28;5104546;28;20360;-83
2023/02/12 04:59:27;;;;;;;16.60;7.07;;;;;;;0.13;46.19;94794.59;5105707;28;20024;-83
2023/02/12 05:01:52;;;;;;;21.75;7.70;;;;;;;0.18;46.69;94792.09;5105632;28;20020;-83
2023/02/12 05:04:18;;;;;;;19.95;6.88;;;;;;;0.17;45.33;94786.06;5105531;28;20020;-83
2023/02/12 05:06:44;;;;;;;15.95;7.15;;;;;;;0.27;45.19;94782.91;5104523;28;20062;-83
2023/02/12 05:09:16;;;;;;;15.02;6.95;;;;;;;0.38;44.63;94794.41;5105259;28;20031;-83
2023/02/12 05:11:41;;;;;;;20.98;7.72;;;;;;;0.40;44.67;94800.22;5105421;28;20195;-83
2023/02/12 05:14:07;;;;;;;19.45;6.85;;;;;;;0.47;44.90;94795.69;5105354;28;20107;-83
2023/02/12 05:16:32;;;;;;;13.70;5.68;;;;;;;0.44;44.16;94793.50;5104227;28;20245;-83
2023/02/12 05:18:58;;;;;;;11.93;5.93;;;;;;;0.41;44.38;94796.59;5105337;28;20248;-83
2023/02/12 05:21:23;;;;;;;15.75;6.82;;;;;;;0.45;45.03;94807.41;5105077;28;20051;-83
2023/02/12 05:23:49;;;;;;;17.92;8.10;;;;;;;0.39;45.35;94819.63;5105156;28;20047;-85
2023/02/12 05:26:17;;;;;;;15.43;7.72;;;;;;;0.23;48.85;94818.44;5105276;28;20039;-84
2023/02/12 05:28:43;;;;;;;18.20;7.45;;;;;;;0.13;49.66;94831.31;5105270;28;20020;-84
2023/02/12 05:31:10;;;;;;;16.88;7.80;;;;;;;-0.05;51.09;94840.03;5104998;28;20207;-84
2023/02/12 05:33:35;;;;;;;16.27;7.53;;;;;;;-0.21;50.84;94834.38;5104786;28;20031;-84
2023/02/12 05:36:10;;;;;;;17.15;7.32;;;;;;;-0.19;50.98;94841.22;5104880;28;20027;-83
2023/02/12 05:38:36;;;;;;;13.70;6.63;;;;;;;-0.28;52.24;94845.97;5104922;28;20059;-84
2023/02/12 05:41:03;;;;;;;14.32;7.45;;;;;;;-0.39;52.32;94839.63;5103524;28;20314;-84
2023/02/12 05:43:29;;;;;;;22.95;8.77;;;;;;;-0.38;52.70;94846.47;5103538;28;20387;-83
2023/02/12 05:45:57;;;;;;;21.50;8.48;;;;;;;-0.46;53.56;94850.19;5104395;28;20039;-83
2023/02/12 05:48:23;;;;;;;19.55;8.18;;;;;;;-0.46;53.69;94841.53;5103393;28;20020;-84
2023/02/12 05:50:48;;;;;;;22.50;7.63;;;;;;;-0.56;54.03;94856.97;5104516;28;20020;-84
2023/02/12 05:53:14;;;;;;;17.83;8.10;;;;;;;-0.52;53.61;94850.28;5104629;28;20070;-84
2023/02/12 05:55:39;;;;;;;20.27;7.75;;;;;;;-0.59;54.85;94862.63;5104367;28;20027;-83
2023/02/12 05:58:05;;;;;;;13.77;6.65;;;;;;;-0.53;54.87;94862.59;5104514;28;20210;-84
2023/02/12 06:00:30;;;;;;;15.45;6.72;;;;;;;-0.48;55.52;94856.69;5103287;28;20024;-83
2023/02/12 06:02:55;;;;;;;16.02;6.55;;;;;;;-0.49;56.97;94866.38;5104472;28;20088;-84
2023/02/12 06:05:21;;;;;;;21.50;7.60;;;;;;;-0.61;58.06;94855.81;5104322;28;20023;-84
2023/02/12 06:07:46;;;;;;;13.20;6.72;;;;;;;-0.64;58.69;94865.91;5103852;28;20020;-84
2023/02/12 06:10:12;;;;;;;14.52;7.38;;;;;;;-0.68;59.74;94859.50;5104364;28;20206;-84
2023/02/12 06:12:37;;;;;;;19.55;6.47;;;;;;;-0.78;59.75;94862.63;5104243;28;20026;-84
2023/02/12 06:15:03;;;;;;;19.17;7.45;;;;;;;-0.77;60.19;94864.25;5104295;28;20299;-84
2023/02/12 06:17:28;;;;;;;15.15;6.57;;;;;;;-0.83;60.46;94852.81;5104017;28;20020;-84
2023/02/12 06:19:53;;;;;;;15.88;7.30;;;;;;;-0.77;60.94;94859.00;5104111;28;20023;-83
2023/02/12 06:22:19;;;;;;;14.70;6.85;;;;;;;-0.78;61.04;94860.00;5102777;28;20007;-83
2023/02/12 06:24:45;;;;;;;12.30;6.07;;;;;;;-0.72;61.25;94863.59;5104225;28;20222;-83
2023/02/12 06:27:10;;;;;;;16.27;7.40;;;;;;;-0.67;61.34;94861.94;5103949;28;20328;-82
2023/02/12 06:29:35;;;;;;;15.48;6.57;;;;;;;-0.72;61.90;94866.22;5103937;28;20031;-82
2023/02/12 06:32:04;;;;;;;14.88;6.78;;;;;;;-0.74;63.29;94873.47;5103700;28;20028;-82
2023/02/12 06:34:29;;;;;;;15.95;6.25;;;;;;;-0.78;64.08;94862.63;5103904;28;20095;-83
2023/02/12 06:36:55;;;;;;;15.02;7.22;;;;;;;-0.86;65.22;94868.94;5103638;28;20012;-83
2023/02/12 06:39:20;;;;;;;17.20;7.15;;;;;;;-0.93;65.67;94870.06;5102609;28;20028;-84
2023/02/12 06:41:46;;;;;;;16.35;7.80;;;;;;;-0.90;65.54;94886.09;5103665;28;20023;-84
2023/02/12 06:44:12;;;;;;;13.98;6.13;;;;;;;-0.87;65.42;94884.88;5103874;28;20053;-84
2023/02/12 06:46:37;;;;;;;19.00;6.70;;;;;;;-0.86;65.06;94883.84;5103435;28;20038;-84
2023/02/12 06:49:03;;;;;;;15.05;7.45;;;;;;;-0.84;65.15;94879.22;5103502;28;20024;-84
2023/02/12 06:51:30;;;;;;;14.68;6.70;;;;;;;-0.81;64.92;94868.31;5103476;28;20091;-84
2023/02/12 06:53:56;;;;;;;17.75;7.20;;;;;;;-0.76;64.38;94872.91;5103504;28;20023;-83
2023/02/12 06:56:23;;;;;;;18.10;8.02;;;;;;;-0.78;64.27;94870.47;5103399;28;20053;-84
2023/02/12 06:58:54;;;;;;;18.45;7.85;;;;;;;-0.74;64.69;94878.72;5103376;28;20016;-84
2023/02/12 07:01:22;;;;;;;18.08;7.68;;;;;;;-0.81;64.04;94857.84;5103363;28;20016;-83
2023/02/12 07:03:51;;;;;;;16.83;7.22;;;;;;;-0.79;64.73;94861.03;5103273;28;20016;-83
2023/02/12 07:06:16;;;;;;;19.63;9.55;;;;;;;-0.68;64.67;94876.03;5103213;28;20083;-83
2023/02/12 07:08:42;;;;;;;20.75;7.90;;;;;;;-0.66;64.10;94875.81;5103565;28;20221;-84
2023/02/12 07:11:07;;;;;;;19.52;7.63;;;;;;;-0.62;64.40;94874.34;5103293;28;20087;-83
2023/02/12 07:13:33;;;;;;;19.48;8.75;;;;;;;-0.63;64.10;94868.31;5103106;28;20028;-84
2023/02/12 07:16:07;;;;;;;19.95;7.93;;;;;;;-0.58;64.25;94877.34;5103197;28;20028;-84
2023/02/12 07:18:34;;;;;;;16.20;8.98;;;;;;;-0.53;64.00;94880.09;5103166;28;20051;-83
2023/02/12 07:20:59;;;;;;;21.55;9.48;;;;;;;-0.43;64.03;94877.75;5102721;28;20031;-83
2023/02/12 07:23:25;;;;;;;18.92;8.90;;;;;;;-0.41;63.58;94880.97;5103108;28;20211;-83
2023/02/12 07:26:01;;;;;;;17.77;7.95;;;;;;;-0.43;63.60;94877.75;5103172;28;20024;-84
2023/02/12 07:28:27;;;;;;;17.75;8.73;;;;;;;-0.37;63.88;94884.75;5103228;28;20035;-84
2023/02/12 07:30:53;;;;;;;19.50;8.95;;;;;;;-0.42;64.09;94877.56;5102955;28;20218;-84
2023/02/12 07:33:18;;;;;;;27.13;9.27;;;;;;;-0.44;64.20;94882.22;5103136;28;20318;-83
2023/02/12 07:35:44;;;;;;;21.85;8.80;;;;;;;-0.41;64.62;94878.34;5101916;28;20035;-84
2023/02/12 07:38:10;;;;;;;18.58;8.90;;;;;;;-0.40;64.55;94874.72;5103024;28;20032;-83
2023/02/12 07:40:35;;;;;;;18.80;8.68;;;;;;;-0.41;64.94;94878.34;5102950;28;20193;-83
2023/02/12 07:43:01;;;;;;;19.45;9.32;;;;;;;-0.36;65.06;94890.81;5102956;28;20027;-83
2023/02/12 07:45:26;;;;;;;20.20;9.27;;;;;;;-0.34;65.05;94889.56;5102677;28;20028;-82
2023/02/12 07:47:51;;;;;;;23.95;10.23;;;;;;;-0.33;64.72;94896.38;5101768;28;20377;-82
2023/02/12 07:50:17;;;;;;;19.05;9.00;;;;;;;-0.30;64.86;94901.19;5102876;28;20012;-82
2023/02/12 07:52:42;;;;;;;23.70;10.43;;;;;;;-0.32;65.02;94897.22;5102868;28;20245;-82
2023/02/12 07:55:08;;;;;;;25.80;10.40;;;;;;;-0.36;65.50;94894.22;5102789;28;20095;-83
2023/02/12 07:57:34;;;;;;;25.38;10.70;;;;;;;-0.35;65.50;94900.25;5102885;28;20023;-83
2023/02/12 08:00:00;;;;;;;23.27;10.55;;;;;;;-0.33;65.98;94906.06;5102724;28;20078;-83
2023/02/12 08:02:25;;;;;;;36.22;12.55;;;;;;;-0.43;66.48;94899.53;5102735;28;20207;-83
2023/02/12 08:04:56;;;;;;;29.75;12.25;;;;;;;-0.48;66.93;94898.59;5102587;28;20016;-83
2023/02/12 08:07:21;;;;;;;27.13;12.20;;;;;;;-0.52;67.40;94906.06;5101629;28;20020;-82
2023/02/12 08:09:47;;;;;;;29.67;13.45;;;;;;;-0.50;67.52;94911.09;5102717;28;20053;-83
2023/02/12 08:12:12;;;;;;;26.42;11.63;;;;;;;-0.51;67.45;94899.00;5102702;28;20230;-83
2023/02/12 08:14:38;;;;;;;25.05;12.70;;;;;;;-0.50;67.50;94916.34;5102487;28;20016;-83
2023/02/12 08:17:03;;;;;;;32.45;14.85;;;;;;;-0.52;67.61;94902.66;5102544;28;20016;-83
2023/02/12 08:19:28;;;;;;;38.17;15.18;;;;;;;-0.48;67.73;94909.06;5102437;28;20035;-83
2023/02/12 08:21:55;;;;;;;34.85;14.60;;;;;;;-0.55;68.21;94911.75;5102531;28;20138;-83
2023/02/12 08:24:22;;;;;;;31.38;13.25;;;;;;;-0.54;68.13;94905.50;5102501;28;20234;-83
2023/02/12 08:26:48;;;;;;;33.55;14.15;;;;;;;-0.50;68.35;94916.34;5102521;28;20016;-83
2023/02/12 08:29:16;;;;;;;29.90;15.15;;;;;;;-0.50;68.09;94926.81;5102439;28;20054;-83
2023/02/12 08:31:44;;;;;;;27.58;14.52;;;;;;;-0.54;68.30;94915.16;5105154;28;20024;-83
2023/02/12 08:34:18;;;;;;;27.85;13.63;;;;;;;-0.55;68.71;94924.03;5104904;28;20027;-83
2023/02/12 08:36:45;;;;;;;30.75;14.45;;;;;;;-0.45;68.60;94933.00;5106214;28;20023;-83
2023/02/12 08:39:11;;;;;;;42.45;16.13;;;;;;;-0.38;68.59;94932.94;5105993;28;20024;-83
2023/02/12 08:41:37;;;;;;;37.05;16.25;;;;;;;-0.31;67.88;94930.22;5106088;28;20199;-83
2023/02/12 08:44:04;;;;;;;39.17;15.43;;;;;;;-0.34;67.82;94941.16;5106052;28;20042;-83
2023/02/12 08:46:32;;;;;;;33.58;14.70;;;;;;;-0.34;67.94;94936.72;5105697;28;20039;-83
2023/02/12 08:49:03;;;;;;;28.13;13.45;;;;;;;-0.31;67.88;94945.94;5105792;28;20031;-83
2023/02/12 08:51:31;;;;;;;31.20;12.93;;;;;;;-0.39;68.06;94949.66;5105726;28;20020;-83
2023/02/12 08:54:01;;;;;;;26.92;11.73;;;;;;;-0.33;67.88;94955.84;5105733;28;20054;-83
2023/02/12 08:56:28;;;;;;;24.63;11.68;;;;;;;-0.32;67.76;94950.41;5105654;28;20020;-83
2023/02/12 08:58:56;;;;;;;27.65;13.55;;;;;;;-0.30;68.07;94944.94;5105671;28;20049;-83
2023/02/12 09:01:23;;;;;;;29.77;12.55;;;;;;;-0.39;67.73;94954.88;5105402;28;20217;-82
2023/02/12 09:03:50;;;;;;;32.22;14.18;;;;;;;-0.26;67.31;94954.75;5105552;28;20020;-83
2023/02/12 09:06:17;;;;;;;28.40;12.60;;;;;;;-0.29;67.75;94960.44;5105697;28;20027;-82
2023/02/12 09:08:43;;;;;;;23.63;11.27;;;;;;;-0.37;67.79;94957.31;5105631;28;20087;-83
2023/02/12 09:11:17;;;;;;;21.08;11.75;;;;;;;-0.37;67.90;94965.94;5105499;28;20047;-83
2023/02/12 09:13:44;;;;;;;24.75;11.50;;;;;;;-0.35;68.07;94960.50;5105457;28;20020;-83
2023/02/12 09:16:10;;;;;;;20.95;11.98;;;;;;;-0.37;68.45;94967.78;5105309;28;20053;-83
2023/02/12 09:18:36;;;;;;;22.23;10.82;;;;;;;-0.39;68.19;94968.00;5105300;28;20040;-83
2023/02/12 09:21:04;;;;;;;28.48;11.68;;;;;;;-0.43;68.40;94979.91;5105239;28;20035;-83
2023/02/12 09:23:30;;;;;;;22.48;11.88;;;;;;;-0.39;68.37;94978.47;5104031;28;20020;-83
2023/02/12 09:25:56;;;;;;;22.17;11.00;;;;;;;-0.36;68.55;94979.88;5105357;28;20024;-83
2023/02/12 09:28:21;;;;;;;25.65;12.07;;;;;;;-0.34;68.74;94977.84;5105110;28;20365;-83
2023/02/12 09:30:47;;;;;;;24.88;10.68;;;;;;;-0.36;68.47;94983.28;5105063;28;20031;-84
2023/02/12 09:33:13;;;;;;;29.10;11.45;;;;;;;-0.31;68.65;94970.31;5103694;28;20032;-83
2023/02/12 09:35:39;;;;;;;23.95;12.00;;;;;;;-0.28;68.87;94976.97;5105428;28;20035;-83
2023/02/12 09:38:05;;;;;;;24.08;9.95;;;;;;;-0.27;68.57;94981.19;5103808;28;20035;-83
2023/02/12 09:40:46;;;;;;;24.42;11.73;;;;;;;-0.24;68.27;94978.94;5104941;28;20030;-83
2023/02/12 09:43:26;;;;;;;23.38;11.60;;;;;;;-0.23;68.37;94980.50;5104396;28;20087;-83
2023/02/12 09:46:03;;;;;;;28.08;12.57;;;;;;;-0.21;68.17;94975.06;5104675;28;20038;-83
2023/02/12 09:48:40;;;;;;;23.83;11.45;;;;;;;-0.24;68.50;94973.69;5104818;28;20230;-82
2023/02/12 09:51:08;;;;;;;31.65;13.43;;;;;;;-0.26;68.52;94970.47;5104681;28;20032;-83
2023/02/12 09:53:39;;;;;;;26.45;11.20;;;;;;;-0.32;68.60;94981.84;5104347;28;20055;-83
2023/02/12 09:56:15;;;;;;;27.38;12.70;;;;;;;-0.28;69.02;94985.63;5104589;28;20020;-83
2023/02/12 09:58:51;;;;;;;24.77;12.23;;;;;;;-0.26;68.72;94991.44;5104615;28;20023;-83
2023/02/12 10:01:19;;;;;;;24.15;11.95;;;;;;;-0.36;69.16;94988.53;5104474;28;20061;-83
2023/02/12 10:03:49;;;;;;;24.85;13.18;;;;;;;-0.32;68.92;94981.03;5104183;28;20044;-83
2023/02/12 10:06:32;;;;;;;26.10;11.95;;;;;;;-0.37;69.42;94973.81;5104516;28;20031;-83
2023/02/12 10:08:57;;;;;;;30.08;13.70;;;;;;;-0.29;69.69;94991.88;5104314;28;20023;-83
2023/02/12 10:11:38;;;;;;;35.05;14.82;;;;;;;-0.17;69.08;94988.53;5104086;28;20337;-83
2023/02/12 10:14:21;;;;;;;31.23;15.35;;;;;;;-0.15;69.24;94991.75;5104122;28;20024;-82
2023/02/12 10:17:04;;;;;;;30.48;13.43;;;;;;;-0.14;69.21;94988.91;5104136;28;20023;-83
2023/02/12 10:20:01;;;;;;;33.83;14.75;;;;;;;-0.13;69.56;94984.47;5102512;28;20375;-83
2023/02/12 10:23:06;;;;;;;25.27;12.57;;;;;;;-0.03;69.01;94988.16;5103519;28;20036;-83
2023/02/12 10:25:48;;;;;;;31.73;14.65;;;;;;;0.03;69.22;94983.09;5103178;28;20028;-83
2023/02/12 10:28:19;;;;;;;27.73;13.90;;;;;;;0.02;69.28;94979.66;5104178;28;20058;-83
2023/02/12 10:30:51;;;;;;;33.33;14.17;;;;;;;0.17;68.69;94990.56;5104031;28;20022;-83
2023/02/12 10:33:24;;;;;;;28.27;13.98;;;;;;;0.29;68.51;95003.75;5102570;28;20012;-83
2023/02/12 10:35:58;;;;;;;30.90;15.55;;;;;;;0.23;68.46;94995.97;5103041;28;20043;-84
2023/02/12 10:38:31;;;;;;;34.95;16.98;;;;;;;0.31;68.35;95006.16;5102062;28;20040;-84
2023/02/12 10:41:00;;;;;;;32.92;13.98;;;;;;;0.21;68.38;94996.19;5103445;28;20218;-84
2023/02/12 10:43:26;;;;;;;31.80;15.45;;;;;;;0.26;68.42;94998.13;5103670;28;20260;-83
2023/02/12 10:45:52;;;;;;;37.38;15.73;;;;;;;0.19;68.63;94993.78;5102350;28;20043;-83
2023/02/12 10:48:23;;;;;;;34.28;14.75;;;;;;;0.21;68.86;94996.19;5102072;28;20054;-83
2023/02/12 10:50:55;;;;;;;35.47;14.68;;;;;;;0.27;68.47;94995.28;5101986;28;20027;-83
2023/02/12 10:53:24;;;;;;;32.00;14.98;;;;;;;0.36;68.74;94987.91;5101758;28;20100;-83
2023/02/12 10:56:09;;;;;;;38.53;17.08;;;;;;;0.64;68.17;94995.22;5100787;28;20023;-84
2023/02/12 10:58:34;;;;;;;31.83;16.35;;;;;;;0.76;67.02;94995.28;5101470;28;20035;-84
2023/02/12 11:01:34;;;;;;;33.80;16.63;;;;;;;0.88;66.74;95000.56;5101743;28;20360;-85
2023/02/12 11:04:23;;;;;;;37.75;15.20;;;;;;;0.88;66.53;94995.31;5101796;28;20039;-83
2023/02/12 11:07:04;;;;;;;36.97;16.15;;;;;;;1.03;66.05;95002.75;5103270;28;20019;-83
2023/02/12 11:09:45;;;;;;;31.58;15.15;;;;;;;1.00;66.07;94999.56;5103124;28;20019;-83
2023/02/12 11:12:31;;;;;;;30.08;14.45;;;;;;;1.04;65.97;94999.91;5103185;28;20222;-84
2023/02/12 11:14:59;;;;;;;28.15;15.88;;;;;;;1.08;65.80;94998.44;5103313;28;20028;-84
2023/02/12 11:17:37;;;;;;;37.28;17.17;;;;;;;1.14;65.92;94994.09;5103210;28;20020;-83
2023/02/12 11:20:17;;;;;;;41.70;16.40;;;;;;;1.14;65.69;94996.72;5103224;28;20203;-83
2023/02/12 11:22:54;;;;;;;34.63;16.63;;;;;;;1.12;65.60;95001.38;5103336;28;20020;-83
2023/02/12 11:25:20;;;;;;;32.33;15.38;;;;;;;1.05;66.19;94985.75;5103128;28;20024;-83
2023/02/12 11:27:59;;;;;;;32.42;14.95;;;;;;;1.00;66.50;94993.50;5103260;28;20024;-83
2023/02/12 11:30:25;;;;;;;35.17;15.32;;;;;;;1.04;66.70;94989.41;5103223;28;20031;-84
2023/02/12 11:32:51;;;;;;;34.13;16.35;;;;;;;1.19;66.56;94988.97;5103091;28;20129;-84
2023/02/12 11:35:27;;;;;;;28.10;15.10;;;;;;;1.22;65.58;94991.13;5102957;28;20032;-84
2023/02/12 11:37:57;;;;;;;35.05;15.00;;;;;;;1.32;65.27;94986.16;5103065;28;20373;-82
2023/02/12 11:40:29;;;;;;;29.58;13.65;;;;;;;1.43;64.88;94981.91;5103034;28;20087;-84
2023/02/12 11:43:00;;;;;;;30.85;14.25;;;;;;;1.45;65.35;94985.13;5103041;28;20214;-82
2023/02/12 11:45:35;;;;;;;32.83;14.98;;;;;;;1.47;65.18;94987.53;5102675;28;20020;-77
2023/02/12 11:48:02;;;;;;;31.80;14.65;;;;;;;1.54;64.93;94981.09;5102806;28;20065;-84